메인 페이지
METAR-TAF:

METAR-TAF

공항 :

샨리우르파, 터키

위도: 37-27N, 경도: 38-54E, 고도: 823m

현재 날씨관측

예보는 37분 전, 18:50시(UTC)에 발표되었습니다.
북북서3kt
온도 21°C
습도 21%
기압 1018 hPa
시정 10km 이상
1500m 미만 상공 구름 및 적란운 없음

METAR: LTCS 251850Z 34003KT CAVOK 21/M02 Q1018 RMK RWY22 00000KT 2CI180

시각: 22:27 (19:27 UTC)

예보

예보는 2 시간 47분 전, 16:40시(UTC)에 발표되었습니다.
예보 대상 시간: 25일 18시부터 26일 18시까지 (UTC)
여러 방향의 바람 2kt
시정 10km 이상
1500m 미만 상공 구름 및 적란운 없음
확률 40% :
일시적
26일 02시부터 26일 06시까지 (UTC)
12kt

TAF: LTCS 251640Z 2518/2618 VRB02KT CAVOK PROB40 TEMPO 2602/2606 36012KT

4,000개 이상의 공항 관측 자료 및 예보 (METAR 및 TAF 보고).

지도상에서 검색 가능한 기상관측소가 노란 점과 빨간 점으로 표시되어 있습니다.

기상관측소 명을 보려면 표시 위로 마우스를 이동하세요.

날씨 관측과 예보를 보려면 클릭하세요.

지도 변경 : 확대하려면 엑스 표시가 있는 녹색 버튼, 축소하려면 빼기 표시가 있는 녹색 버튼, 다음 페이지의 지도를 보려면 녹색 화살표를 클릭하세요.


METAR-TAF: